sensor_id;sensor_type;location;lat;lon;timestamp;P1;durP1;ratioP1;P2;durP2;ratioP2
32748;SDS011;19119;52.474;13.710;2022-07-23T00:00:46;12.85;;;4.80;;
32748;SDS011;19119;52.474;13.710;2022-07-23T00:03:12;6.60;;;4.80;;
32748;SDS011;19119;52.474;13.710;2022-07-23T00:05:38;7.75;;;5.10;;
32748;SDS011;19119;52.474;13.710;2022-07-23T00:08:04;8.25;;;5.00;;
32748;SDS011;19119;52.474;13.710;2022-07-23T00:10:31;8.13;;;4.78;;
32748;SDS011;19119;52.474;13.710;2022-07-23T00:12:56;7.15;;;4.82;;
32748;SDS011;19119;52.474;13.710;2022-07-23T00:15:22;10.00;;;5.40;;
32748;SDS011;19119;52.474;13.710;2022-07-23T00:17:47;7.63;;;5.38;;
32748;SDS011;19119;52.474;13.710;2022-07-23T00:20:13;8.70;;;5.28;;
32748;SDS011;19119;52.474;13.710;2022-07-23T00:22:52;6.28;;;5.30;;
32748;SDS011;19119;52.474;13.710;2022-07-23T00:25:19;11.05;;;5.53;;
32748;SDS011;19119;52.474;13.710;2022-07-23T00:27:46;8.02;;;5.72;;
32748;SDS011;19119;52.474;13.710;2022-07-23T00:30:12;9.02;;;5.82;;
32748;SDS011;19119;52.474;13.710;2022-07-23T00:35:13;7.03;;;4.82;;
32748;SDS011;19119;52.474;13.710;2022-07-23T00:37:39;7.57;;;5.05;;
32748;SDS011;19119;52.474;13.710;2022-07-23T00:40:04;9.02;;;5.45;;
32748;SDS011;19119;52.474;13.710;2022-07-23T00:42:31;9.18;;;5.85;;
32748;SDS011;19119;52.474;13.710;2022-07-23T00:44:57;11.63;;;5.43;;
32748;SDS011;19119;52.474;13.710;2022-07-23T00:47:23;10.65;;;5.78;;
32748;SDS011;19119;52.474;13.710;2022-07-23T00:49:48;10.30;;;6.07;;
32748;SDS011;19119;52.474;13.710;2022-07-23T00:52:14;10.63;;;6.10;;
32748;SDS011;19119;52.474;13.710;2022-07-23T00:54:41;8.57;;;6.25;;
32748;SDS011;19119;52.474;13.710;2022-07-23T00:57:07;9.10;;;6.03;;
32748;SDS011;19119;52.474;13.710;2022-07-23T00:59:33;9.23;;;6.03;;
32748;SDS011;19119;52.474;13.710;2022-07-23T01:01:59;9.07;;;5.90;;
32748;SDS011;19119;52.474;13.710;2022-07-23T01:04:24;8.40;;;6.32;;
32748;SDS011;19119;52.474;13.710;2022-07-23T01:06:50;9.77;;;6.30;;
32748;SDS011;19119;52.474;13.710;2022-07-23T01:09:15;10.18;;;6.05;;
32748;SDS011;19119;52.474;13.710;2022-07-23T01:11:41;9.50;;;6.00;;
32748;SDS011;19119;52.474;13.710;2022-07-23T01:14:17;9.40;;;6.43;;
32748;SDS011;19119;52.474;13.710;2022-07-23T01:16:44;8.18;;;5.55;;
32748;SDS011;19119;52.474;13.710;2022-07-23T01:19:11;7.22;;;6.00;;
32748;SDS011;19119;52.474;13.710;2022-07-23T01:21:38;9.70;;;5.80;;
32748;SDS011;19119;52.474;13.710;2022-07-23T01:24:05;7.78;;;5.57;;
32748;SDS011;19119;52.474;13.710;2022-07-23T01:26:32;9.05;;;5.35;;
32748;SDS011;19119;52.474;13.710;2022-07-23T01:28:57;7.93;;;5.80;;
32748;SDS011;19119;52.474;13.710;2022-07-23T01:31:23;8.00;;;5.68;;
32748;SDS011;19119;52.474;13.710;2022-07-23T01:33:49;9.23;;;5.47;;
32748;SDS011;19119;52.474;13.710;2022-07-23T01:36:14;8.27;;;5.78;;
32748;SDS011;19119;52.474;13.710;2022-07-23T01:38:40;7.45;;;5.38;;
32748;SDS011;19119;52.474;13.710;2022-07-23T01:41:05;9.40;;;5.70;;
32748;SDS011;19119;52.474;13.710;2022-07-23T01:43:31;8.32;;;6.00;;
32748;SDS011;19119;52.474;13.710;2022-07-23T01:45:56;10.05;;;5.90;;
32748;SDS011;19119;52.474;13.710;2022-07-23T01:48:22;9.32;;;5.75;;
32748;SDS011;19119;52.474;13.710;2022-07-23T01:50:47;6.53;;;5.47;;
32748;SDS011;19119;52.474;13.710;2022-07-23T01:53:13;6.53;;;5.22;;
32748;SDS011;19119;52.474;13.710;2022-07-23T01:55:39;9.68;;;6.47;;
32748;SDS011;19119;52.474;13.710;2022-07-23T01:58:05;8.43;;;5.90;;
32748;SDS011;19119;52.474;13.710;2022-07-23T02:00:31;7.60;;;5.50;;
32748;SDS011;19119;52.474;13.710;2022-07-23T02:02:56;9.05;;;5.68;;
32748;SDS011;19119;52.474;13.710;2022-07-23T02:05:23;8.52;;;6.28;;
32748;SDS011;19119;52.474;13.710;2022-07-23T02:07:53;10.85;;;6.65;;
32748;SDS011;19119;52.474;13.710;2022-07-23T02:10:19;9.52;;;6.72;;
32748;SDS011;19119;52.474;13.710;2022-07-23T02:12:45;12.38;;;7.10;;
32748;SDS011;19119;52.474;13.710;2022-07-23T02:15:11;9.23;;;5.93;;
32748;SDS011;19119;52.474;13.710;2022-07-23T02:17:36;8.70;;;6.32;;
32748;SDS011;19119;52.474;13.710;2022-07-23T02:20:03;11.02;;;6.00;;
32748;SDS011;19119;52.474;13.710;2022-07-23T02:22:29;11.07;;;6.63;;
32748;SDS011;19119;52.474;13.710;2022-07-23T02:24:55;9.82;;;6.45;;
32748;SDS011;19119;52.474;13.710;2022-07-23T02:27:20;9.05;;;6.00;;
32748;SDS011;19119;52.474;13.710;2022-07-23T02:29:46;14.43;;;6.00;;
32748;SDS011;19119;52.474;13.710;2022-07-23T02:32:12;9.32;;;6.25;;
32748;SDS011;19119;52.474;13.710;2022-07-23T02:34:37;9.85;;;6.63;;
32748;SDS011;19119;52.474;13.710;2022-07-23T02:37:03;8.55;;;6.80;;
32748;SDS011;19119;52.474;13.710;2022-07-23T02:39:28;16.77;;;7.45;;
32748;SDS011;19119;52.474;13.710;2022-07-23T02:41:54;16.40;;;7.10;;
32748;SDS011;19119;52.474;13.710;2022-07-23T02:44:19;15.40;;;6.63;;
32748;SDS011;19119;52.474;13.710;2022-07-23T02:46:45;16.45;;;6.82;;
32748;SDS011;19119;52.474;13.710;2022-07-23T02:49:10;9.48;;;6.53;;
32748;SDS011;19119;52.474;13.710;2022-07-23T02:51:36;11.18;;;6.25;;
32748;SDS011;19119;52.474;13.710;2022-07-23T02:54:01;10.50;;;6.55;;
32748;SDS011;19119;52.474;13.710;2022-07-23T02:56:27;9.10;;;6.45;;
32748;SDS011;19119;52.474;13.710;2022-07-23T02:58:52;9.85;;;6.60;;
32748;SDS011;19119;52.474;13.710;2022-07-23T03:01:18;11.90;;;6.50;;
32748;SDS011;19119;52.474;13.710;2022-07-23T03:03:43;9.43;;;6.15;;
32748;SDS011;19119;52.474;13.710;2022-07-23T03:06:09;11.45;;;6.43;;
32748;SDS011;19119;52.474;13.710;2022-07-23T03:08:34;11.73;;;6.65;;
32748;SDS011;19119;52.474;13.710;2022-07-23T03:11:00;8.18;;;5.82;;
32748;SDS011;19119;52.474;13.710;2022-07-23T03:13:25;12.60;;;6.60;;
32748;SDS011;19119;52.474;13.710;2022-07-23T03:15:51;12.38;;;7.22;;
32748;SDS011;19119;52.474;13.710;2022-07-23T03:18:16;10.88;;;7.18;;
32748;SDS011;19119;52.474;13.710;2022-07-23T03:20:42;12.48;;;7.15;;
32748;SDS011;19119;52.474;13.710;2022-07-23T03:23:07;12.50;;;7.38;;
32748;SDS011;19119;52.474;13.710;2022-07-23T03:25:33;13.57;;;8.15;;
32748;SDS011;19119;52.474;13.710;2022-07-23T03:27:58;13.10;;;7.80;;
32748;SDS011;19119;52.474;13.710;2022-07-23T03:30:24;10.32;;;7.78;;
32748;SDS011;19119;52.474;13.710;2022-07-23T03:32:49;10.73;;;7.10;;
32748;SDS011;19119;52.474;13.710;2022-07-23T03:35:15;15.02;;;8.25;;
32748;SDS011;19119;52.474;13.710;2022-07-23T03:37:40;13.55;;;8.57;;
32748;SDS011;19119;52.474;13.710;2022-07-23T03:40:06;10.75;;;7.40;;
32748;SDS011;19119;52.474;13.710;2022-07-23T03:42:32;9.52;;;7.20;;
32748;SDS011;19119;52.474;13.710;2022-07-23T03:44:58;16.38;;;8.77;;
32748;SDS011;19119;52.474;13.710;2022-07-23T03:47:23;14.38;;;7.75;;
32748;SDS011;19119;52.474;13.710;2022-07-23T03:49:49;12.30;;;7.22;;
32748;SDS011;19119;52.474;13.710;2022-07-23T03:52:14;10.82;;;7.80;;
32748;SDS011;19119;52.474;13.710;2022-07-23T03:54:40;15.52;;;7.93;;
32748;SDS011;19119;52.474;13.710;2022-07-23T03:57:06;11.85;;;7.75;;
32748;SDS011;19119;52.474;13.710;2022-07-23T03:59:31;11.20;;;8.05;;
32748;SDS011;19119;52.474;13.710;2022-07-23T04:01:57;12.48;;;7.63;;
32748;SDS011;19119;52.474;13.710;2022-07-23T04:04:22;13.57;;;8.73;;
32748;SDS011;19119;52.474;13.710;2022-07-23T04:06:48;12.60;;;8.25;;
32748;SDS011;19119;52.474;13.710;2022-07-23T04:09:13;12.73;;;7.63;;
32748;SDS011;19119;52.474;13.710;2022-07-23T04:11:39;12.43;;;7.75;;
32748;SDS011;19119;52.474;13.710;2022-07-23T04:14:05;13.93;;;8.38;;
32748;SDS011;19119;52.474;13.710;2022-07-23T04:16:30;13.13;;;6.85;;
32748;SDS011;19119;52.474;13.710;2022-07-23T04:18:56;11.93;;;8.10;;
32748;SDS011;19119;52.474;13.710;2022-07-23T04:21:22;14.38;;;8.30;;
32748;SDS011;19119;52.474;13.710;2022-07-23T04:23:48;12.85;;;7.10;;
32748;SDS011;19119;52.474;13.710;2022-07-23T04:26:14;12.75;;;8.15;;
32748;SDS011;19119;52.474;13.710;2022-07-23T04:28:40;12.93;;;7.32;;
32748;SDS011;19119;52.474;13.710;2022-07-23T04:31:06;13.05;;;7.47;;
32748;SDS011;19119;52.474;13.710;2022-07-23T04:33:31;14.30;;;7.80;;
32748;SDS011;19119;52.474;13.710;2022-07-23T04:35:57;12.38;;;7.97;;
32748;SDS011;19119;52.474;13.710;2022-07-23T04:38:22;12.48;;;6.95;;
32748;SDS011;19119;52.474;13.710;2022-07-23T04:40:48;10.50;;;7.05;;
32748;SDS011;19119;52.474;13.710;2022-07-23T04:43:13;10.50;;;7.65;;
32748;SDS011;19119;52.474;13.710;2022-07-23T04:45:39;11.25;;;7.10;;
32748;SDS011;19119;52.474;13.710;2022-07-23T04:48:05;9.93;;;6.68;;
32748;SDS011;19119;52.474;13.710;2022-07-23T04:50:30;10.13;;;6.22;;
32748;SDS011;19119;52.474;13.710;2022-07-23T04:52:55;10.90;;;7.03;;
32748;SDS011;19119;52.474;13.710;2022-07-23T04:55:21;10.98;;;6.72;;
32748;SDS011;19119;52.474;13.710;2022-07-23T04:57:46;12.38;;;6.85;;
32748;SDS011;19119;52.474;13.710;2022-07-23T05:00:12;10.15;;;6.40;;
32748;SDS011;19119;52.474;13.710;2022-07-23T05:02:38;13.35;;;6.70;;
32748;SDS011;19119;52.474;13.710;2022-07-23T05:05:03;12.48;;;6.35;;
32748;SDS011;19119;52.474;13.710;2022-07-23T05:07:29;15.88;;;7.35;;
32748;SDS011;19119;52.474;13.710;2022-07-23T05:09:55;11.82;;;6.30;;
32748;SDS011;19119;52.474;13.710;2022-07-23T05:12:20;13.85;;;7.07;;
32748;SDS011;19119;52.474;13.710;2022-07-23T05:14:45;15.43;;;7.00;;
32748;SDS011;19119;52.474;13.710;2022-07-23T05:17:11;14.95;;;7.53;;
32748;SDS011;19119;52.474;13.710;2022-07-23T05:19:37;11.15;;;6.95;;
32748;SDS011;19119;52.474;13.710;2022-07-23T05:22:02;11.70;;;6.85;;
32748;SDS011;19119;52.474;13.710;2022-07-23T05:24:28;15.55;;;7.90;;
32748;SDS011;19119;52.474;13.710;2022-07-23T05:26:53;14.82;;;7.30;;
32748;SDS011;19119;52.474;13.710;2022-07-23T05:29:19;17.60;;;7.75;;
32748;SDS011;19119;52.474;13.710;2022-07-23T05:31:44;12.80;;;7.03;;
32748;SDS011;19119;52.474;13.710;2022-07-23T05:34:10;9.75;;;7.07;;
32748;SDS011;19119;52.474;13.710;2022-07-23T05:36:36;11.18;;;6.22;;
32748;SDS011;19119;52.474;13.710;2022-07-23T05:39:02;10.95;;;6.85;;
32748;SDS011;19119;52.474;13.710;2022-07-23T05:41:27;9.57;;;5.32;;
32748;SDS011;19119;52.474;13.710;2022-07-23T05:43:53;9.43;;;5.70;;
32748;SDS011;19119;52.474;13.710;2022-07-23T05:46:18;14.48;;;6.68;;
32748;SDS011;19119;52.474;13.710;2022-07-23T05:48:44;13.98;;;5.97;;
32748;SDS011;19119;52.474;13.710;2022-07-23T05:51:18;10.95;;;5.43;;
32748;SDS011;19119;52.474;13.710;2022-07-23T05:53:44;8.93;;;5.05;;
32748;SDS011;19119;52.474;13.710;2022-07-23T05:56:10;12.02;;;5.15;;
32748;SDS011;19119;52.474;13.710;2022-07-23T05:58:35;9.18;;;5.25;;
32748;SDS011;19119;52.474;13.710;2022-07-23T06:01:01;17.08;;;6.18;;
32748;SDS011;19119;52.474;13.710;2022-07-23T06:03:27;10.68;;;5.60;;
32748;SDS011;19119;52.474;13.710;2022-07-23T06:05:52;10.02;;;5.68;;
32748;SDS011;19119;52.474;13.710;2022-07-23T06:08:18;8.27;;;4.90;;
32748;SDS011;19119;52.474;13.710;2022-07-23T06:10:43;8.43;;;5.07;;
32748;SDS011;19119;52.474;13.710;2022-07-23T06:13:08;11.68;;;5.65;;
32748;SDS011;19119;52.474;13.710;2022-07-23T06:15:34;8.93;;;4.63;;
32748;SDS011;19119;52.474;13.710;2022-07-23T06:17:59;8.77;;;4.70;;
32748;SDS011;19119;52.474;13.710;2022-07-23T06:20:25;8.70;;;4.25;;
32748;SDS011;19119;52.474;13.710;2022-07-23T06:22:50;11.10;;;5.60;;
32748;SDS011;19119;52.474;13.710;2022-07-23T06:25:16;9.68;;;4.88;;
32748;SDS011;19119;52.474;13.710;2022-07-23T06:27:42;11.65;;;5.40;;
32748;SDS011;19119;52.474;13.710;2022-07-23T06:30:07;8.55;;;4.45;;
32748;SDS011;19119;52.474;13.710;2022-07-23T06:32:35;12.27;;;4.13;;
32748;SDS011;19119;52.474;13.710;2022-07-23T06:35:00;9.73;;;4.03;;
32748;SDS011;19119;52.474;13.710;2022-07-23T06:37:26;7.38;;;4.22;;
32748;SDS011;19119;52.474;13.710;2022-07-23T06:39:51;9.38;;;5.13;;
32748;SDS011;19119;52.474;13.710;2022-07-23T06:42:17;9.45;;;4.32;;
32748;SDS011;19119;52.474;13.710;2022-07-23T06:44:42;8.30;;;4.38;;
32748;SDS011;19119;52.474;13.710;2022-07-23T06:47:08;14.13;;;5.00;;
32748;SDS011;19119;52.474;13.710;2022-07-23T06:49:34;10.73;;;4.55;;
32748;SDS011;19119;52.474;13.710;2022-07-23T06:51:59;9.50;;;5.00;;
32748;SDS011;19119;52.474;13.710;2022-07-23T06:54:25;10.77;;;4.75;;
32748;SDS011;19119;52.474;13.710;2022-07-23T06:56:50;9.10;;;5.22;;
32748;SDS011;19119;52.474;13.710;2022-07-23T06:59:16;11.68;;;5.05;;
32748;SDS011;19119;52.474;13.710;2022-07-23T07:01:41;13.80;;;4.68;;
32748;SDS011;19119;52.474;13.710;2022-07-23T07:04:07;9.15;;;4.70;;
32748;SDS011;19119;52.474;13.710;2022-07-23T07:06:32;10.23;;;5.10;;
32748;SDS011;19119;52.474;13.710;2022-07-23T07:08:57;11.82;;;5.85;;
32748;SDS011;19119;52.474;13.710;2022-07-23T07:11:23;8.57;;;5.00;;
32748;SDS011;19119;52.474;13.710;2022-07-23T07:13:50;10.02;;;5.15;;
32748;SDS011;19119;52.474;13.710;2022-07-23T07:16:15;10.63;;;4.78;;
32748;SDS011;19119;52.474;13.710;2022-07-23T07:18:41;11.57;;;4.78;;
32748;SDS011;19119;52.474;13.710;2022-07-23T07:21:07;7.60;;;5.57;;
32748;SDS011;19119;52.474;13.710;2022-07-23T07:23:32;8.38;;;4.35;;
32748;SDS011;19119;52.474;13.710;2022-07-23T07:25:58;11.30;;;5.63;;
32748;SDS011;19119;52.474;13.710;2022-07-23T07:28:23;11.15;;;5.35;;
32748;SDS011;19119;52.474;13.710;2022-07-23T07:30:49;10.98;;;5.60;;
32748;SDS011;19119;52.474;13.710;2022-07-23T07:33:14;13.52;;;5.55;;
32748;SDS011;19119;52.474;13.710;2022-07-23T07:35:40;9.48;;;5.75;;
32748;SDS011;19119;52.474;13.710;2022-07-23T07:38:05;10.07;;;5.85;;
32748;SDS011;19119;52.474;13.710;2022-07-23T07:40:31;7.97;;;5.22;;
32748;SDS011;19119;52.474;13.710;2022-07-23T07:42:56;12.55;;;5.80;;
32748;SDS011;19119;52.474;13.710;2022-07-23T07:45:23;11.93;;;5.25;;
32748;SDS011;19119;52.474;13.710;2022-07-23T07:47:49;11.30;;;5.60;;
32748;SDS011;19119;52.474;13.710;2022-07-23T07:50:16;11.90;;;5.78;;
32748;SDS011;19119;52.474;13.710;2022-07-23T07:52:42;14.77;;;5.32;;
32748;SDS011;19119;52.474;13.710;2022-07-23T07:55:08;11.55;;;5.55;;
32748;SDS011;19119;52.474;13.710;2022-07-23T07:57:34;10.25;;;5.20;;
32748;SDS011;19119;52.474;13.710;2022-07-23T08:00:01;15.23;;;6.30;;
32748;SDS011;19119;52.474;13.710;2022-07-23T08:02:27;9.27;;;4.80;;
32748;SDS011;19119;52.474;13.710;2022-07-23T08:04:52;11.73;;;5.63;;
32748;SDS011;19119;52.474;13.710;2022-07-23T08:07:18;13.50;;;6.43;;
32748;SDS011;19119;52.474;13.710;2022-07-23T08:09:44;13.88;;;5.93;;
32748;SDS011;19119;52.474;13.710;2022-07-23T08:12:10;16.35;;;5.43;;
32748;SDS011;19119;52.474;13.710;2022-07-23T08:14:35;9.05;;;5.72;;
32748;SDS011;19119;52.474;13.710;2022-07-23T08:17:01;12.40;;;6.45;;
32748;SDS011;19119;52.474;13.710;2022-07-23T08:19:26;13.45;;;6.32;;
32748;SDS011;19119;52.474;13.710;2022-07-23T08:21:52;13.85;;;7.13;;
32748;SDS011;19119;52.474;13.710;2022-07-23T08:24:17;10.88;;;5.60;;
32748;SDS011;19119;52.474;13.710;2022-07-23T08:26:43;10.00;;;6.47;;
32748;SDS011;19119;52.474;13.710;2022-07-23T08:29:08;16.42;;;5.95;;
32748;SDS011;19119;52.474;13.710;2022-07-23T08:31:34;10.20;;;5.72;;
32748;SDS011;19119;52.474;13.710;2022-07-23T08:34:00;8.77;;;5.75;;
32748;SDS011;19119;52.474;13.710;2022-07-23T08:36:27;10.30;;;5.82;;
32748;SDS011;19119;52.474;13.710;2022-07-23T08:38:53;10.07;;;5.63;;
32748;SDS011;19119;52.474;13.710;2022-07-23T08:41:19;11.88;;;6.68;;
32748;SDS011;19119;52.474;13.710;2022-07-23T08:43:45;12.00;;;5.82;;
32748;SDS011;19119;52.474;13.710;2022-07-23T08:46:11;8.65;;;5.93;;
32748;SDS011;19119;52.474;13.710;2022-07-23T08:48:39;7.85;;;6.32;;
32748;SDS011;19119;52.474;13.710;2022-07-23T08:51:05;10.05;;;6.70;;
32748;SDS011;19119;52.474;13.710;2022-07-23T08:53:31;10.13;;;7.78;;
32748;SDS011;19119;52.474;13.710;2022-07-23T08:56:00;12.10;;;7.80;;
32748;SDS011;19119;52.474;13.710;2022-07-23T08:58:27;12.15;;;5.90;;
32748;SDS011;19119;52.474;13.710;2022-07-23T09:00:53;7.25;;;5.25;;
32748;SDS011;19119;52.474;13.710;2022-07-23T09:05:46;12.40;;;4.88;;
32748;SDS011;19119;52.474;13.710;2022-07-23T09:08:17;10.13;;;4.85;;
32748;SDS011;19119;52.474;13.710;2022-07-23T09:13:25;7.90;;;4.63;;
32748;SDS011;19119;52.474;13.710;2022-07-23T09:15:51;6.38;;;4.65;;
32748;SDS011;19119;52.474;13.710;2022-07-23T09:18:17;10.45;;;4.90;;
32748;SDS011;19119;52.474;13.710;2022-07-23T09:20:43;10.35;;;4.38;;
32748;SDS011;19119;52.474;13.710;2022-07-23T09:23:09;7.25;;;4.22;;
32748;SDS011;19119;52.474;13.710;2022-07-23T09:25:35;9.02;;;4.45;;
32748;SDS011;19119;52.474;13.710;2022-07-23T09:28:00;10.65;;;3.95;;
32748;SDS011;19119;52.474;13.710;2022-07-23T09:30:28;12.80;;;4.68;;
32748;SDS011;19119;52.474;13.710;2022-07-23T09:33:12;12.55;;;4.53;;
32748;SDS011;19119;52.474;13.710;2022-07-23T09:35:58;8.38;;;4.05;;
32748;SDS011;19119;52.474;13.710;2022-07-23T09:38:24;6.75;;;3.67;;
32748;SDS011;19119;52.474;13.710;2022-07-23T09:43:34;7.93;;;3.88;;
32748;SDS011;19119;52.474;13.710;2022-07-23T09:46:19;9.00;;;3.63;;
32748;SDS011;19119;52.474;13.710;2022-07-23T09:48:53;7.10;;;4.07;;
32748;SDS011;19119;52.474;13.710;2022-07-23T09:51:21;5.15;;;3.40;;
32748;SDS011;19119;52.474;13.710;2022-07-23T09:54:07;9.15;;;3.97;;
32748;SDS011;19119;52.474;13.710;2022-07-23T09:56:51;7.80;;;3.60;;
32748;SDS011;19119;52.474;13.710;2022-07-23T09:59:17;12.93;;;4.13;;
32748;SDS011;19119;52.474;13.710;2022-07-23T10:01:47;10.93;;;6.03;;
32748;SDS011;19119;52.474;13.710;2022-07-23T10:04:12;7.18;;;3.47;;
32748;SDS011;19119;52.474;13.710;2022-07-23T10:06:39;11.90;;;7.15;;
32748;SDS011;19119;52.474;13.710;2022-07-23T10:09:05;13.15;;;5.95;;
32748;SDS011;19119;52.474;13.710;2022-07-23T10:11:33;5.60;;;3.47;;
32748;SDS011;19119;52.474;13.710;2022-07-23T10:13:59;7.50;;;4.07;;
32748;SDS011;19119;52.474;13.710;2022-07-23T10:16:27;11.75;;;5.55;;
32748;SDS011;19119;52.474;13.710;2022-07-23T10:18:53;8.68;;;4.40;;
32748;SDS011;19119;52.474;13.710;2022-07-23T10:21:27;7.93;;;4.82;;
32748;SDS011;19119;52.474;13.710;2022-07-23T10:24:12;7.85;;;4.22;;
32748;SDS011;19119;52.474;13.710;2022-07-23T10:26:51;10.95;;;4.95;;
32748;SDS011;19119;52.474;13.710;2022-07-23T10:29:45;10.65;;;4.63;;
32748;SDS011;19119;52.474;13.710;2022-07-23T10:32:23;7.70;;;4.50;;
32748;SDS011;19119;52.474;13.710;2022-07-23T10:37:43;7.45;;;4.00;;
32748;SDS011;19119;52.474;13.710;2022-07-23T10:40:15;8.38;;;3.90;;
32748;SDS011;19119;52.474;13.710;2022-07-23T10:42:46;8.98;;;3.50;;
32748;SDS011;19119;52.474;13.710;2022-07-23T10:45:30;5.05;;;3.80;;
32748;SDS011;19119;52.474;13.710;2022-07-23T10:48:11;7.18;;;3.60;;
32748;SDS011;19119;52.474;13.710;2022-07-23T10:50:41;8.57;;;4.07;;
32748;SDS011;19119;52.474;13.710;2022-07-23T10:58:03;8.95;;;3.30;;
32748;SDS011;19119;52.474;13.710;2022-07-23T11:00:30;5.78;;;3.40;;
32748;SDS011;19119;52.474;13.710;2022-07-23T11:03:01;8.32;;;3.08;;
32748;SDS011;19119;52.474;13.710;2022-07-23T11:08:10;8.52;;;3.17;;
32748;SDS011;19119;52.474;13.710;2022-07-23T11:10:40;6.28;;;3.47;;
32748;SDS011;19119;52.474;13.710;2022-07-23T11:16:03;9.73;;;4.72;;
32748;SDS011;19119;52.474;13.710;2022-07-23T11:31:57;8.00;;;3.85;;
32748;SDS011;19119;52.474;13.710;2022-07-23T11:34:35;9.57;;;3.90;;
32748;SDS011;19119;52.474;13.710;2022-07-23T11:37:06;7.82;;;3.63;;
32748;SDS011;19119;52.474;13.710;2022-07-23T11:39:33;9.48;;;3.08;;
32748;SDS011;19119;52.474;13.710;2022-07-23T11:42:00;5.18;;;2.60;;
32748;SDS011;19119;52.474;13.710;2022-07-23T11:44:27;5.60;;;2.58;;
32748;SDS011;19119;52.474;13.710;2022-07-23T11:47:00;7.55;;;3.10;;
32748;SDS011;19119;52.474;13.710;2022-07-23T11:49:30;4.40;;;2.42;;
32748;SDS011;19119;52.474;13.710;2022-07-23T11:54:36;4.68;;;2.72;;
32748;SDS011;19119;52.474;13.710;2022-07-23T11:57:11;6.53;;;2.60;;
32748;SDS011;19119;52.474;13.710;2022-07-23T11:59:37;4.53;;;2.83;;
32748;SDS011;19119;52.474;13.710;2022-07-23T12:02:05;5.80;;;2.33;;
32748;SDS011;19119;52.474;13.710;2022-07-23T12:04:38;7.68;;;2.58;;
32748;SDS011;19119;52.474;13.710;2022-07-23T12:07:22;7.82;;;3.45;;
32748;SDS011;19119;52.474;13.710;2022-07-23T12:09:52;5.93;;;2.85;;
32748;SDS011;19119;52.474;13.710;2022-07-23T12:12:18;4.38;;;2.90;;
32748;SDS011;19119;52.474;13.710;2022-07-23T12:14:48;5.68;;;3.22;;
32748;SDS011;19119;52.474;13.710;2022-07-23T12:17:15;6.60;;;2.78;;
32748;SDS011;19119;52.474;13.710;2022-07-23T12:19:40;7.55;;;3.42;;
32748;SDS011;19119;52.474;13.710;2022-07-23T12:22:06;5.22;;;2.80;;
32748;SDS011;19119;52.474;13.710;2022-07-23T12:24:52;7.80;;;2.65;;
32748;SDS011;19119;52.474;13.710;2022-07-23T12:27:38;5.70;;;3.08;;
32748;SDS011;19119;52.474;13.710;2022-07-23T12:32:52;6.45;;;2.80;;
32748;SDS011;19119;52.474;13.710;2022-07-23T12:35:21;7.68;;;3.15;;
32748;SDS011;19119;52.474;13.710;2022-07-23T12:37:49;7.60;;;2.83;;
32748;SDS011;19119;52.474;13.710;2022-07-23T12:43:09;6.97;;;2.78;;
32748;SDS011;19119;52.474;13.710;2022-07-23T12:45:46;5.72;;;2.72;;
32748;SDS011;19119;52.474;13.710;2022-07-23T12:48:22;5.80;;;2.70;;
32748;SDS011;19119;52.474;13.710;2022-07-23T12:50:56;4.57;;;2.90;;
32748;SDS011;19119;52.474;13.710;2022-07-23T12:53:30;8.43;;;2.83;;
32748;SDS011;19119;52.474;13.710;2022-07-23T13:01:44;6.05;;;2.72;;
32748;SDS011;19119;52.474;13.710;2022-07-23T13:04:07;8.90;;;3.15;;
32748;SDS011;19119;52.474;13.710;2022-07-23T13:06:45;5.45;;;2.95;;
32748;SDS011;19119;52.474;13.710;2022-07-23T13:09:15;5.07;;;3.00;;
32748;SDS011;19119;52.474;13.710;2022-07-23T13:11:43;6.63;;;3.08;;
32748;SDS011;19119;52.474;13.710;2022-07-23T13:14:10;5.45;;;3.42;;
32748;SDS011;19119;52.474;13.710;2022-07-23T13:16:37;6.07;;;2.75;;
32748;SDS011;19119;52.474;13.710;2022-07-23T13:19:04;6.10;;;3.25;;
32748;SDS011;19119;52.474;13.710;2022-07-23T13:21:31;6.05;;;3.10;;
32748;SDS011;19119;52.474;13.710;2022-07-23T13:23:56;6.53;;;3.10;;
32748;SDS011;19119;52.474;13.710;2022-07-23T13:26:22;5.00;;;2.70;;
32748;SDS011;19119;52.474;13.710;2022-07-23T13:28:48;7.13;;;2.75;;
32748;SDS011;19119;52.474;13.710;2022-07-23T13:31:15;6.25;;;2.90;;
32748;SDS011;19119;52.474;13.710;2022-07-23T13:33:41;7.80;;;2.53;;
32748;SDS011;19119;52.474;13.710;2022-07-23T13:36:06;8.38;;;3.25;;
32748;SDS011;19119;52.474;13.710;2022-07-23T13:38:32;5.50;;;2.95;;
32748;SDS011;19119;52.474;13.710;2022-07-23T13:40:58;6.82;;;3.58;;
32748;SDS011;19119;52.474;13.710;2022-07-23T13:43:24;6.93;;;3.17;;
32748;SDS011;19119;52.474;13.710;2022-07-23T13:45:51;5.57;;;3.13;;
32748;SDS011;19119;52.474;13.710;2022-07-23T13:48:18;5.72;;;3.55;;
32748;SDS011;19119;52.474;13.710;2022-07-23T13:50:45;7.28;;;2.85;;
32748;SDS011;19119;52.474;13.710;2022-07-23T13:53:13;5.68;;;3.53;;
32748;SDS011;19119;52.474;13.710;2022-07-23T13:55:40;6.95;;;3.67;;
32748;SDS011;19119;52.474;13.710;2022-07-23T13:58:07;7.10;;;3.03;;
32748;SDS011;19119;52.474;13.710;2022-07-23T14:00:34;4.72;;;2.92;;
32748;SDS011;19119;52.474;13.710;2022-07-23T14:03:00;5.40;;;3.00;;
32748;SDS011;19119;52.474;13.710;2022-07-23T14:05:26;5.70;;;3.28;;
32748;SDS011;19119;52.474;13.710;2022-07-23T14:07:52;5.10;;;3.17;;
32748;SDS011;19119;52.474;13.710;2022-07-23T14:10:19;7.28;;;3.83;;
32748;SDS011;19119;52.474;13.710;2022-07-23T14:12:46;6.97;;;2.70;;
32748;SDS011;19119;52.474;13.710;2022-07-23T14:15:13;9.55;;;3.13;;
32748;SDS011;19119;52.474;13.710;2022-07-23T14:17:40;6.80;;;3.50;;
32748;SDS011;19119;52.474;13.710;2022-07-23T14:20:07;4.15;;;2.85;;
32748;SDS011;19119;52.474;13.710;2022-07-23T14:22:33;4.68;;;2.50;;
32748;SDS011;19119;52.474;13.710;2022-07-23T14:24:59;5.65;;;2.90;;
32748;SDS011;19119;52.474;13.710;2022-07-23T14:27:25;6.70;;;3.25;;
32748;SDS011;19119;52.474;13.710;2022-07-23T14:29:52;6.13;;;2.47;;
32748;SDS011;19119;52.474;13.710;2022-07-23T14:32:18;4.82;;;2.90;;
32748;SDS011;19119;52.474;13.710;2022-07-23T14:34:43;5.60;;;3.00;;
32748;SDS011;19119;52.474;13.710;2022-07-23T14:37:09;4.25;;;2.70;;
32748;SDS011;19119;52.474;13.710;2022-07-23T14:39:39;4.88;;;2.88;;
32748;SDS011;19119;52.474;13.710;2022-07-23T14:42:05;3.97;;;2.65;;
32748;SDS011;19119;52.474;13.710;2022-07-23T14:44:31;6.05;;;3.00;;
32748;SDS011;19119;52.474;13.710;2022-07-23T14:46:57;5.47;;;3.05;;
32748;SDS011;19119;52.474;13.710;2022-07-23T14:49:24;5.85;;;3.03;;
32748;SDS011;19119;52.474;13.710;2022-07-23T14:51:50;5.45;;;3.00;;
32748;SDS011;19119;52.474;13.710;2022-07-23T14:54:16;3.78;;;2.80;;
32748;SDS011;19119;52.474;13.710;2022-07-23T14:56:41;5.32;;;3.00;;
32748;SDS011;19119;52.474;13.710;2022-07-23T14:59:07;4.50;;;2.70;;
32748;SDS011;19119;52.474;13.710;2022-07-23T15:01:33;3.33;;;2.20;;
32748;SDS011;19119;52.474;13.710;2022-07-23T15:03:59;6.55;;;2.50;;
32748;SDS011;19119;52.474;13.710;2022-07-23T15:06:25;4.35;;;2.80;;
32748;SDS011;19119;52.474;13.710;2022-07-23T15:08:50;3.97;;;2.47;;
32748;SDS011;19119;52.474;13.710;2022-07-23T15:11:16;6.32;;;2.65;;
32748;SDS011;19119;52.474;13.710;2022-07-23T15:13:42;4.25;;;2.42;;
32748;SDS011;19119;52.474;13.710;2022-07-23T15:16:08;5.40;;;2.50;;
32748;SDS011;19119;52.474;13.710;2022-07-23T15:18:34;5.57;;;2.08;;